createdAt,value
2019-05-29T00:02:15.426Z,1.63
2019-05-29T00:04:45.485Z,1.90
2019-05-29T00:07:15.593Z,1.50
2019-05-29T00:09:45.679Z,1.40
2019-05-29T00:12:19.675Z,1.47
2019-05-29T00:14:47.631Z,1.87
2019-05-29T00:17:18.761Z,1.63
2019-05-29T00:19:48.965Z,1.73
2019-05-29T00:22:19.043Z,1.57
2019-05-29T00:24:49.088Z,1.53
2019-05-29T00:27:19.149Z,1.30
2019-05-29T00:29:49.220Z,1.70
2019-05-29T00:32:19.300Z,1.70
2019-05-29T00:34:49.379Z,1.67
2019-05-29T00:37:19.423Z,1.60
2019-05-29T00:39:49.508Z,1.70
2019-05-29T00:42:19.562Z,1.50
2019-05-29T00:44:49.634Z,1.33
2019-05-29T00:47:19.699Z,1.53
2019-05-29T00:49:49.820Z,1.77
2019-05-29T00:52:19.903Z,1.87
2019-05-29T00:54:49.967Z,1.37
2019-05-29T00:57:20.036Z,1.50
2019-05-29T00:59:50.136Z,1.77
2019-05-29T01:02:20.204Z,1.90
2019-05-29T01:04:50.304Z,1.90
2019-05-29T01:07:20.579Z,1.83
2019-05-29T01:09:50.733Z,2.07
2019-05-29T01:12:21.263Z,1.20
2019-05-29T01:14:51.486Z,1.63
2019-05-29T01:17:23.702Z,1.87
2019-05-29T01:19:53.397Z,1.80
2019-05-29T01:22:23.492Z,1.33
2019-05-29T01:24:53.571Z,1.50
2019-05-29T01:27:23.621Z,1.60
2019-05-29T01:29:53.693Z,1.43
2019-05-29T01:32:23.864Z,1.40
2019-05-29T01:34:53.953Z,2.33
2019-05-29T01:37:24.351Z,1.80
2019-05-29T01:39:54.653Z,1.37
2019-05-29T01:42:25.003Z,1.73
2019-05-29T01:45:07.168Z,1.60
2019-05-29T01:47:28.008Z,1.50
2019-05-29T01:49:58.200Z,1.60
2019-05-29T01:52:28.252Z,1.80
2019-05-29T01:54:58.315Z,1.80
2019-05-29T01:57:28.394Z,1.80
2019-05-29T01:59:58.491Z,2.10
2019-05-29T02:02:28.549Z,2.20
2019-05-29T02:04:58.627Z,2.23
2019-05-29T02:07:28.693Z,1.60
2019-05-29T02:09:58.766Z,2.03
2019-05-29T02:12:43.798Z,1.90
2019-05-29T02:15:23.854Z,1.73
2019-05-29T02:17:46.368Z,1.70
2019-05-29T02:20:16.987Z,2.43
2019-05-29T02:22:47.107Z,2.10
2019-05-29T02:25:19.655Z,1.70
2019-05-29T02:27:50.734Z,1.70
2019-05-29T02:30:23.530Z,2.10
2019-05-29T02:32:53.650Z,2.30
2019-05-29T02:35:24.831Z,2.00
2019-05-29T02:37:55.756Z,1.93
2019-05-29T02:40:28.132Z,1.87
2019-05-29T02:42:57.782Z,2.37
2019-05-29T02:45:50.884Z,1.80
2019-05-29T02:47:59.871Z,2.07
2019-05-29T02:50:31.308Z,2.37
2019-05-29T02:53:01.598Z,2.10
2019-05-29T02:55:31.746Z,1.60
2019-05-29T02:58:01.872Z,1.97
2019-05-29T03:00:54.428Z,1.77
2019-05-29T03:03:26.502Z,1.93
2019-05-29T03:05:57.492Z,1.77
2019-05-29T03:08:31.162Z,2.00
2019-05-29T03:10:59.744Z,2.00
2019-05-29T03:13:31.604Z,1.80
2019-05-29T03:16:10.334Z,1.87
2019-05-29T03:18:35.136Z,1.77
2019-05-29T03:21:05.397Z,1.90
2019-05-29T03:23:36.370Z,1.63
2019-05-29T03:26:07.107Z,1.93
2019-05-29T03:28:38.195Z,1.80
2019-05-29T03:31:08.723Z,1.63
2019-05-29T03:33:47.806Z,2.40
2019-05-29T03:36:10.939Z,2.27
2019-05-29T03:38:41.086Z,1.80
2019-05-29T03:41:11.285Z,1.80
2019-05-29T03:43:41.615Z,1.80
2019-05-29T03:46:29.823Z,1.87
2019-05-29T03:48:46.947Z,2.00
2019-05-29T03:51:17.222Z,1.70
2019-05-29T03:53:47.395Z,2.10
2019-05-29T03:56:17.472Z,1.93
2019-05-29T03:58:47.729Z,2.20
2019-05-29T04:01:18.118Z,1.90
2019-05-29T04:03:48.308Z,1.80
2019-05-29T04:06:18.812Z,1.77
2019-05-29T04:08:50.573Z,2.07
2019-05-29T04:11:21.184Z,2.07
2019-05-29T04:13:51.491Z,2.10
2019-05-29T04:16:23.534Z,2.17
2019-05-29T04:18:55.617Z,1.73
2019-05-29T04:21:27.939Z,2.30
2019-05-29T04:24:00.441Z,1.83
2019-05-29T04:26:33.939Z,2.10
2019-05-29T04:29:04.686Z,2.20
2019-05-29T04:31:36.356Z,2.03
2019-05-29T04:34:06.811Z,2.30
2019-05-29T04:36:38.516Z,1.80
2019-05-29T04:39:08.718Z,1.90
2019-05-29T04:41:39.340Z,2.00
2019-05-29T04:44:09.494Z,1.90
2019-05-29T04:46:41.243Z,1.80
2019-05-29T04:49:11.297Z,2.20
2019-05-29T04:51:41.542Z,1.90
2019-05-29T04:54:11.622Z,1.80
2019-05-29T04:56:41.801Z,1.83
2019-05-29T04:59:11.886Z,1.83
2019-05-29T05:01:42.088Z,1.80
2019-05-29T05:04:12.143Z,1.83
2019-05-29T05:06:42.274Z,1.83
2019-05-29T05:09:12.332Z,1.30
2019-05-29T05:11:42.787Z,1.40
2019-05-29T05:14:12.862Z,1.37
2019-05-29T05:16:42.919Z,0.90
2019-05-29T05:19:13.034Z,1.40
2019-05-29T05:21:43.163Z,1.13
2019-05-29T05:24:13.257Z,0.90
2019-05-29T05:26:43.363Z,0.90
2019-05-29T05:29:13.499Z,1.33
2019-05-29T05:31:43.755Z,0.83
2019-05-29T05:34:14.253Z,1.13
2019-05-29T05:36:44.413Z,0.97
2019-05-29T05:39:14.501Z,1.00
2019-05-29T05:41:46.959Z,0.80
2019-05-29T05:44:17.027Z,0.80
2019-05-29T05:46:47.118Z,0.60
2019-05-29T05:49:17.233Z,0.87
2019-05-29T05:51:48.050Z,0.40
2019-05-29T05:54:18.128Z,0.60
2019-05-29T05:56:48.229Z,0.70
2019-05-29T05:59:18.314Z,0.73
2019-05-29T06:01:48.431Z,1.00
2019-05-29T06:04:21.400Z,0.70
2019-05-29T06:06:53.005Z,0.80
2019-05-29T06:09:23.131Z,0.90
2019-05-29T06:11:53.160Z,0.60
2019-05-29T06:14:23.264Z,0.70
2019-05-29T06:16:55.725Z,3.17
2019-05-29T06:19:25.837Z,1.07
2019-05-29T06:21:55.926Z,0.57
2019-05-29T06:24:26.082Z,0.50
2019-05-29T06:26:57.771Z,0.50
2019-05-29T06:29:29.322Z,0.53
2019-05-29T06:31:59.421Z,0.50
2019-05-29T06:34:29.503Z,0.40
2019-05-29T06:36:59.564Z,0.60
2019-05-29T06:39:29.675Z,0.77
2019-05-29T06:41:59.734Z,0.53
2019-05-29T06:44:29.832Z,0.63
2019-05-29T06:46:59.930Z,0.70
2019-05-29T06:49:30.030Z,0.70
2019-05-29T06:52:00.130Z,0.80
2019-05-29T06:54:30.221Z,0.50
2019-05-29T06:57:00.311Z,0.57
2019-05-29T06:59:30.411Z,0.40
2019-05-29T07:02:00.472Z,0.30
2019-05-29T07:04:30.823Z,0.33
2019-05-29T07:07:00.863Z,0.67
2019-05-29T07:09:30.970Z,0.60
2019-05-29T07:12:01.042Z,0.57
2019-05-29T07:14:34.721Z,0.30
2019-05-29T07:17:04.850Z,0.53
2019-05-29T07:19:48.939Z,0.70
2019-05-29T07:22:06.738Z,0.40
2019-05-29T07:24:37.069Z,0.60
2019-05-29T07:27:07.319Z,0.77
2019-05-29T07:29:37.435Z,0.30
2019-05-29T07:32:07.543Z,0.80
2019-05-29T07:34:52.675Z,0.60
2019-05-29T07:37:09.413Z,0.70
2019-05-29T07:39:39.523Z,0.40
2019-05-29T07:42:09.564Z,0.40
2019-05-29T07:44:39.996Z,0.57
2019-05-29T07:47:10.226Z,0.53
2019-05-29T07:49:43.501Z,0.70
2019-05-29T07:52:12.154Z,0.63
2019-05-29T07:54:43.649Z,0.60
2019-05-29T07:57:13.900Z,0.50
2019-05-29T07:59:44.667Z,0.40
2019-05-29T08:02:14.862Z,0.50
2019-05-29T08:04:45.217Z,0.83
2019-05-29T08:07:15.306Z,0.60
2019-05-29T08:09:45.685Z,0.47
2019-05-29T08:12:15.757Z,0.53
2019-05-29T08:14:45.917Z,0.40
2019-05-29T08:17:15.962Z,0.57
2019-05-29T08:19:59.280Z,0.50
2019-05-29T08:22:33.257Z,0.73
2019-05-29T08:24:51.098Z,0.70
2019-05-29T08:27:21.286Z,0.77
2019-05-29T08:29:51.387Z,0.50
2019-05-29T08:32:21.489Z,0.57
2019-05-29T08:34:51.654Z,0.83
2019-05-29T08:37:21.773Z,0.50
2019-05-29T08:39:51.890Z,0.77
2019-05-29T08:42:23.811Z,0.50
2019-05-29T08:44:53.785Z,0.97
2019-05-29T08:47:23.859Z,0.53
2019-05-29T08:49:54.618Z,0.70
2019-05-29T08:52:24.821Z,0.80
2019-05-29T08:54:54.922Z,0.60
2019-05-29T08:57:25.016Z,0.63
2019-05-29T08:59:55.099Z,0.50
2019-05-29T09:02:25.204Z,0.60
2019-05-29T09:04:55.285Z,0.60
2019-05-29T09:07:25.370Z,0.57
2019-05-29T09:09:55.462Z,0.40
2019-05-29T09:12:25.546Z,0.43
2019-05-29T09:14:55.683Z,0.40
2019-05-29T09:17:25.920Z,0.53
2019-05-29T09:19:55.995Z,0.50
2019-05-29T09:22:26.148Z,0.57
2019-05-29T09:24:56.214Z,0.50
2019-05-29T09:27:26.650Z,0.63
2019-05-29T09:29:56.757Z,0.50
2019-05-29T09:32:48.324Z,0.40
2019-05-29T09:34:58.654Z,0.30
2019-05-29T09:37:28.759Z,0.40
2019-05-29T09:39:58.820Z,0.40
2019-05-29T09:42:28.919Z,0.43
2019-05-29T09:44:58.991Z,0.40
2019-05-29T09:47:29.105Z,0.50
2019-05-29T09:49:59.202Z,0.47
2019-05-29T09:52:30.798Z,0.40
2019-05-29T09:55:02.493Z,0.40
2019-05-29T09:57:32.787Z,0.53
2019-05-29T10:00:04.185Z,0.50
2019-05-29T10:02:34.494Z,0.60
2019-05-29T10:05:05.074Z,0.50
2019-05-29T10:07:35.171Z,0.40
2019-05-29T10:10:06.125Z,0.50
2019-05-29T10:12:36.243Z,0.67
2019-05-29T10:15:07.358Z,0.40
2019-05-29T10:17:37.538Z,0.47
2019-05-29T10:20:08.391Z,0.40
2019-05-29T10:22:38.474Z,0.60
2019-05-29T10:25:09.085Z,0.60
2019-05-29T10:27:39.173Z,0.63
2019-05-29T10:30:10.412Z,0.67
2019-05-29T10:32:42.450Z,0.50
2019-05-29T10:35:13.215Z,0.60
2019-05-29T10:37:44.475Z,0.53
2019-05-29T10:40:15.180Z,0.73
2019-05-29T10:42:45.311Z,1.37
2019-05-29T10:45:16.005Z,1.10
2019-05-29T10:47:47.307Z,1.70
2019-05-29T10:50:17.760Z,2.97
2019-05-29T10:52:47.960Z,0.80
2019-05-29T10:55:21.384Z,2.93
2019-05-29T10:57:52.919Z,1.50
2019-05-29T11:00:23.493Z,0.87
2019-05-29T11:02:55.861Z,0.67
2019-05-29T11:05:25.372Z,0.40
2019-05-29T11:07:55.949Z,0.50
2019-05-29T11:10:26.196Z,0.73
2019-05-29T11:12:56.800Z,0.87
2019-05-29T11:15:27.138Z,0.80
2019-05-29T11:17:57.446Z,0.70
2019-05-29T11:20:27.991Z,0.50
2019-05-29T11:22:58.091Z,0.53
2019-05-29T11:25:28.592Z,0.60
2019-05-29T11:27:58.831Z,0.60
2019-05-29T11:30:29.098Z,0.60
2019-05-29T11:33:01.462Z,0.83
2019-05-29T11:35:31.082Z,1.30
2019-05-29T11:38:01.186Z,0.60
2019-05-29T11:40:31.567Z,0.63
2019-05-29T11:43:03.113Z,0.47
2019-05-29T11:45:35.599Z,0.60
2019-05-29T11:48:05.572Z,0.80
2019-05-29T11:50:35.716Z,0.80
2019-05-29T11:53:06.096Z,0.60
2019-05-29T11:55:36.148Z,0.80
2019-05-29T11:58:06.404Z,0.90
2019-05-29T12:00:36.489Z,0.63
2019-05-29T12:03:07.525Z,0.70
2019-05-29T12:05:37.589Z,0.97
2019-05-29T12:08:07.866Z,2.20
2019-05-29T12:10:38.057Z,8.03
2019-05-29T12:13:08.166Z,0.77
2019-05-29T12:15:38.275Z,0.60
2019-05-29T12:18:22.719Z,0.70
2019-05-29T12:20:40.272Z,0.40
2019-05-29T12:23:24.850Z,0.57
2019-05-29T12:25:42.207Z,0.50
2019-05-29T12:28:12.305Z,0.40
2019-05-29T12:30:42.418Z,0.60
2019-05-29T12:33:12.537Z,0.37
2019-05-29T12:35:42.625Z,0.40
2019-05-29T12:38:12.768Z,0.30
2019-05-29T12:40:42.895Z,0.50
2019-05-29T12:43:26.462Z,0.50
2019-05-29T12:45:44.829Z,0.50
2019-05-29T12:48:16.099Z,0.70
2019-05-29T12:50:46.666Z,0.40
2019-05-29T12:53:29.528Z,0.40
2019-05-29T12:55:48.656Z,0.53
2019-05-29T12:58:18.725Z,0.70
2019-05-29T13:00:48.939Z,0.50
2019-05-29T13:03:19.062Z,0.77
2019-05-29T13:05:49.139Z,0.60
2019-05-29T13:08:19.248Z,0.40
2019-05-29T13:10:50.823Z,0.37
2019-05-29T13:13:20.894Z,0.60
2019-05-29T13:15:51.213Z,0.57
2019-05-29T13:18:21.408Z,0.30
2019-05-29T13:20:51.523Z,0.43
2019-05-29T13:23:21.620Z,0.30
2019-05-29T13:25:51.767Z,0.40
2019-05-29T13:28:21.870Z,0.37
2019-05-29T13:30:51.994Z,0.30
2019-05-29T13:33:22.136Z,0.40
2019-05-29T13:35:52.402Z,0.50
2019-05-29T13:38:22.499Z,0.17
2019-05-29T13:40:52.658Z,0.30
2019-05-29T13:43:22.774Z,0.20
2019-05-29T13:45:52.909Z,0.20
2019-05-29T13:48:23.553Z,0.37
2019-05-29T13:50:53.685Z,0.27
2019-05-29T13:53:24.610Z,0.20
2019-05-29T13:55:57.739Z,0.30
2019-05-29T13:58:27.935Z,0.20
2019-05-29T14:00:58.227Z,0.30
2019-05-29T14:03:28.278Z,0.20
2019-05-29T14:05:58.743Z,0.20
2019-05-29T14:08:28.767Z,0.30
2019-05-29T14:10:59.199Z,0.30
2019-05-29T14:13:29.366Z,0.30
2019-05-29T14:16:00.568Z,0.23
2019-05-29T14:18:30.763Z,0.10
2019-05-29T14:21:00.977Z,0.40
2019-05-29T14:23:31.022Z,0.30
2019-05-29T14:26:02.217Z,0.30
2019-05-29T14:28:32.473Z,0.50
2019-05-29T14:31:03.767Z,0.30
2019-05-29T14:33:33.910Z,0.20
2019-05-29T14:36:05.843Z,0.20
2019-05-29T14:38:36.173Z,0.30
2019-05-29T14:41:06.272Z,0.40
2019-05-29T14:43:37.535Z,0.40
2019-05-29T14:46:08.092Z,0.50
2019-05-29T14:48:38.557Z,0.43
2019-05-29T14:51:08.705Z,0.50
2019-05-29T14:53:38.793Z,0.23
2019-05-29T14:56:08.923Z,0.40
2019-05-29T14:58:39.020Z,0.30
2019-05-29T15:01:09.225Z,0.20
2019-05-29T15:03:39.295Z,0.40
2019-05-29T15:06:09.735Z,0.43
2019-05-29T15:08:39.784Z,0.40
2019-05-29T15:11:10.093Z,0.70
2019-05-29T15:13:40.250Z,0.40
2019-05-29T15:16:10.873Z,0.33
2019-05-29T15:18:41.100Z,0.30
2019-05-29T15:21:11.219Z,0.40
2019-05-29T15:23:41.355Z,0.20
2019-05-29T15:26:11.735Z,0.50
2019-05-29T15:28:41.875Z,0.33
2019-05-29T15:31:12.417Z,0.50
2019-05-29T15:33:42.594Z,0.40
2019-05-29T15:36:13.178Z,0.20
2019-05-29T15:38:43.363Z,0.37
2019-05-29T15:41:14.773Z,0.40
2019-05-29T15:43:45.013Z,0.40
2019-05-29T15:46:16.426Z,0.40
2019-05-29T15:48:46.948Z,0.37
2019-05-29T15:51:17.179Z,0.60
2019-05-29T15:53:47.395Z,0.70
2019-05-29T15:56:27.165Z,0.40
2019-05-29T15:58:49.345Z,0.50
2019-05-29T16:01:19.455Z,0.30
2019-05-29T16:03:49.511Z,0.43
2019-05-29T16:06:19.648Z,0.70
2019-05-29T16:08:49.775Z,0.50
2019-05-29T16:11:19.908Z,0.50
2019-05-29T16:13:50.001Z,0.50
2019-05-29T16:16:20.106Z,0.40
2019-05-29T16:18:50.197Z,0.30
2019-05-29T16:21:20.286Z,0.30
2019-05-29T16:23:50.362Z,0.50
2019-05-29T16:26:21.452Z,0.50
2019-05-29T16:28:51.555Z,0.60
2019-05-29T16:31:22.922Z,0.50
2019-05-29T16:33:53.440Z,0.50
2019-05-29T16:36:23.516Z,0.30
2019-05-29T16:38:53.888Z,0.50
2019-05-29T16:41:23.972Z,0.40
2019-05-29T16:43:54.117Z,0.53
2019-05-29T16:46:24.766Z,0.60
2019-05-29T16:48:54.961Z,0.40
2019-05-29T16:51:25.079Z,0.50
2019-05-29T16:53:56.520Z,0.30
2019-05-29T16:56:26.595Z,0.30
2019-05-29T16:58:58.761Z,0.40
2019-05-29T17:01:28.856Z,0.40
2019-05-29T17:03:59.044Z,0.43
2019-05-29T17:06:52.511Z,0.50
2019-05-29T17:09:22.613Z,0.30
2019-05-29T17:11:52.699Z,0.50
2019-05-29T17:14:22.940Z,0.50
2019-05-29T17:16:53.237Z,0.30
2019-05-29T17:19:23.430Z,0.43
2019-05-29T17:21:53.553Z,0.50
2019-05-29T17:24:24.963Z,0.43
2019-05-29T17:27:07.406Z,0.50
2019-05-29T17:29:28.914Z,0.40
2019-05-29T17:31:59.016Z,0.23
2019-05-29T17:34:29.117Z,0.50
2019-05-29T17:36:59.284Z,0.30
2019-05-29T17:39:29.401Z,0.30
2019-05-29T17:41:59.515Z,0.37
2019-05-29T17:44:29.611Z,0.40
2019-05-29T17:46:59.741Z,0.60
2019-05-29T17:49:34.456Z,0.30
2019-05-29T17:52:01.711Z,0.47
2019-05-29T17:54:31.806Z,0.40
2019-05-29T17:57:02.078Z,0.57
2019-05-29T17:59:32.185Z,0.53
2019-05-29T18:02:02.531Z,0.50
2019-05-29T18:04:32.746Z,0.40
2019-05-29T18:07:02.896Z,0.50
2019-05-29T18:09:33.176Z,0.50
2019-05-29T18:12:03.284Z,0.50
2019-05-29T18:14:36.234Z,0.60
2019-05-29T18:17:06.377Z,0.50
2019-05-29T18:19:36.659Z,0.40
2019-05-29T18:22:06.781Z,0.57
2019-05-29T18:24:36.961Z,0.40
2019-05-29T18:27:07.113Z,0.60
2019-05-29T18:29:37.279Z,0.53
2019-05-29T18:32:09.265Z,0.57
2019-05-29T18:34:39.469Z,0.40
2019-05-29T18:37:09.632Z,0.50
2019-05-29T18:39:39.845Z,0.67
2019-05-29T18:42:09.962Z,0.40
2019-05-29T18:44:40.087Z,0.80
2019-05-29T18:47:13.266Z,0.40
2019-05-29T18:49:46.007Z,0.50
2019-05-29T18:52:35.306Z,0.50
2019-05-29T18:55:08.546Z,0.60
2019-05-29T18:57:38.725Z,0.50
2019-05-29T19:00:09.692Z,0.70
2019-05-29T19:02:39.871Z,0.80
2019-05-29T19:05:10.501Z,0.60
2019-05-29T19:07:45.375Z,0.40
2019-05-29T19:10:16.496Z,0.60
2019-05-29T19:12:46.623Z,0.50
2019-05-29T19:15:17.262Z,0.40
2019-05-29T19:17:47.409Z,0.33
2019-05-29T19:20:17.782Z,0.63
2019-05-29T19:22:50.728Z,0.50
2019-05-29T19:25:20.913Z,0.57
2019-05-29T19:27:51.190Z,0.57
2019-05-29T19:30:22.861Z,0.37
2019-05-29T19:32:53.256Z,0.70
2019-05-29T19:35:27.543Z,0.40
2019-05-29T19:37:57.939Z,0.50
2019-05-29T19:40:28.186Z,0.57
2019-05-29T19:42:58.370Z,0.80
2019-05-29T19:45:28.665Z,0.40
2019-05-29T19:47:58.797Z,0.60
2019-05-29T19:50:28.952Z,0.50
2019-05-29T19:52:59.026Z,0.60
2019-05-29T19:55:32.870Z,0.80
2019-05-29T19:58:01.116Z,0.80
2019-05-29T20:00:32.150Z,0.90
2019-05-29T20:03:02.430Z,0.87
2019-05-29T20:05:32.921Z,1.00
2019-05-29T20:08:03.043Z,1.47
2019-05-29T20:10:33.482Z,1.47
2019-05-29T20:13:03.585Z,1.37
2019-05-29T20:15:33.960Z,1.50
2019-05-29T20:18:04.334Z,1.57
2019-05-29T20:20:34.615Z,1.80
2019-05-29T20:23:04.733Z,1.90
2019-05-29T20:25:35.031Z,1.70
2019-05-29T20:28:10.647Z,1.90
2019-05-29T20:30:40.859Z,2.20
2019-05-29T20:33:11.174Z,1.87
2019-05-29T20:35:41.297Z,1.90
2019-05-29T20:38:11.448Z,1.90
2019-05-29T20:40:41.638Z,1.97
2019-05-29T20:43:11.882Z,2.53
2019-05-29T20:45:42.042Z,2.33
2019-05-29T20:48:12.199Z,2.40
2019-05-29T20:50:43.312Z,2.20
2019-05-29T20:53:13.654Z,2.00
2019-05-29T20:55:43.766Z,2.33
2019-05-29T20:58:24.501Z,1.70
2019-05-29T21:00:47.051Z,1.60
2019-05-29T21:03:17.338Z,1.60
2019-05-29T21:05:47.452Z,1.77
2019-05-29T21:08:17.600Z,1.50
2019-05-29T21:10:47.698Z,1.40
2019-05-29T21:13:17.845Z,1.60
2019-05-29T21:15:51.783Z,1.30
2019-05-29T21:18:21.946Z,1.10
2019-05-29T21:20:52.066Z,1.50
2019-05-29T21:23:22.173Z,1.47
2019-05-29T21:25:52.392Z,1.60
2019-05-29T21:28:22.491Z,1.70
2019-05-29T21:30:52.612Z,1.50
2019-05-29T21:33:22.755Z,1.77
2019-05-29T21:35:52.841Z,2.57
2019-05-29T21:38:22.973Z,2.00
2019-05-29T21:40:53.068Z,1.90
2019-05-29T21:43:23.175Z,1.90
2019-05-29T21:45:53.242Z,1.77
2019-05-29T21:48:23.519Z,1.27
2019-05-29T21:50:53.600Z,1.73
2019-05-29T21:53:23.719Z,1.30
2019-05-29T21:55:53.866Z,1.43
2019-05-29T21:58:23.974Z,0.93
2019-05-29T22:00:54.055Z,1.30
2019-05-29T22:03:24.139Z,1.00
2019-05-29T22:05:54.280Z,1.10
2019-05-29T22:08:24.384Z,1.10
2019-05-29T22:10:55.535Z,1.00
2019-05-29T22:13:25.754Z,1.33
2019-05-29T22:15:56.866Z,1.00
2019-05-29T22:18:27.044Z,1.23
2019-05-29T22:20:58.752Z,1.00
2019-05-29T22:23:29.202Z,1.13
2019-05-29T22:25:59.493Z,1.10
2019-05-29T22:28:29.650Z,1.17
2019-05-29T22:30:59.748Z,1.17
2019-05-29T22:33:29.848Z,1.10
2019-05-29T22:35:59.929Z,1.10
2019-05-29T22:38:30.013Z,1.17
2019-05-29T22:41:00.089Z,0.87
2019-05-29T22:43:30.178Z,0.77
2019-05-29T22:46:01.932Z,0.90
2019-05-29T22:48:32.169Z,1.20
2019-05-29T22:51:02.243Z,0.93
2019-05-29T22:53:32.371Z,1.00
2019-05-29T22:56:02.464Z,0.87
2019-05-29T22:58:32.570Z,1.00
2019-05-29T23:01:02.619Z,0.67
2019-05-29T23:03:32.782Z,0.90
2019-05-29T23:06:02.865Z,1.20
2019-05-29T23:08:32.964Z,0.93
2019-05-29T23:11:03.175Z,1.10
2019-05-29T23:13:33.237Z,1.03
2019-05-29T23:16:03.318Z,1.00
2019-05-29T23:18:33.427Z,1.13
2019-05-29T23:21:03.487Z,1.37
2019-05-29T23:23:33.590Z,0.80
2019-05-29T23:26:03.708Z,1.00
2019-05-29T23:28:33.834Z,1.00
2019-05-29T23:31:03.939Z,1.10
2019-05-29T23:33:34.000Z,1.10
2019-05-29T23:36:05.498Z,1.00
2019-05-29T23:38:35.535Z,1.30
2019-05-29T23:41:05.629Z,1.40
2019-05-29T23:43:35.743Z,1.20
2019-05-29T23:46:05.774Z,1.00
2019-05-29T23:48:35.873Z,1.20
2019-05-29T23:51:05.943Z,1.13
2019-05-29T23:53:36.013Z,0.90
2019-05-29T23:56:06.212Z,1.27
2019-05-29T23:58:36.270Z,1.10
